sensor_id;sensor_type;location;lat;lon;timestamp;P1;durP1;ratioP1;P2;durP2;ratioP2
41755;SDS011;27435;48.480;9.258;2022-09-16T00:00:27;19.27;;;9.40;;
41755;SDS011;27435;48.480;9.258;2022-09-16T00:02:54;18.33;;;8.53;;
41755;SDS011;27435;48.480;9.258;2022-09-16T00:05:20;15.23;;;9.30;;
41755;SDS011;27435;48.480;9.258;2022-09-16T00:07:46;12.73;;;8.50;;
41755;SDS011;27435;48.480;9.258;2022-09-16T00:10:12;14.63;;;8.60;;
41755;SDS011;27435;48.480;9.258;2022-09-16T00:12:38;13.23;;;8.40;;
41755;SDS011;27435;48.480;9.258;2022-09-16T00:15:04;11.13;;;7.77;;
41755;SDS011;27435;48.480;9.258;2022-09-16T00:17:31;13.30;;;7.60;;
41755;SDS011;27435;48.480;9.258;2022-09-16T00:19:57;17.53;;;7.63;;
41755;SDS011;27435;48.480;9.258;2022-09-16T00:22:22;11.97;;;7.63;;
41755;SDS011;27435;48.480;9.258;2022-09-16T00:24:49;16.80;;;8.83;;
41755;SDS011;27435;48.480;9.258;2022-09-16T00:27:15;13.93;;;8.83;;
41755;SDS011;27435;48.480;9.258;2022-09-16T00:29:41;16.23;;;8.80;;
41755;SDS011;27435;48.480;9.258;2022-09-16T00:32:06;15.80;;;8.87;;
41755;SDS011;27435;48.480;9.258;2022-09-16T00:34:32;14.33;;;8.50;;
41755;SDS011;27435;48.480;9.258;2022-09-16T00:36:57;13.07;;;8.60;;
41755;SDS011;27435;48.480;9.258;2022-09-16T00:39:23;13.03;;;8.40;;
41755;SDS011;27435;48.480;9.258;2022-09-16T00:41:49;13.97;;;8.50;;
41755;SDS011;27435;48.480;9.258;2022-09-16T00:47:24;15.23;;;8.17;;
41755;SDS011;27435;48.480;9.258;2022-09-16T00:50:11;16.20;;;8.83;;
41755;SDS011;27435;48.480;9.258;2022-09-16T00:53:00;15.37;;;9.30;;
41755;SDS011;27435;48.480;9.258;2022-09-16T00:55:27;14.73;;;8.97;;
41755;SDS011;27435;48.480;9.258;2022-09-16T00:57:58;15.37;;;8.93;;
41755;SDS011;27435;48.480;9.258;2022-09-16T01:00:30;20.03;;;9.30;;
41755;SDS011;27435;48.480;9.258;2022-09-16T01:02:56;14.10;;;9.10;;
41755;SDS011;27435;48.480;9.258;2022-09-16T01:05:22;15.50;;;10.30;;
41755;SDS011;27435;48.480;9.258;2022-09-16T01:07:51;17.40;;;8.50;;
41755;SDS011;27435;48.480;9.258;2022-09-16T01:10:24;13.83;;;9.07;;
41755;SDS011;27435;48.480;9.258;2022-09-16T01:12:54;12.93;;;8.07;;
41755;SDS011;27435;48.480;9.258;2022-09-16T01:15:25;13.43;;;8.37;;
41755;SDS011;27435;48.480;9.258;2022-09-16T01:18:02;16.05;;;8.93;;
41755;SDS011;27435;48.480;9.258;2022-09-16T01:23:55;12.53;;;8.17;;
41755;SDS011;27435;48.480;9.258;2022-09-16T01:35:19;15.73;;;8.97;;
41755;SDS011;27435;48.480;9.258;2022-09-16T01:46:01;16.90;;;8.73;;
41755;SDS011;27435;48.480;9.258;2022-09-16T01:48:36;17.00;;;8.47;;
41755;SDS011;27435;48.480;9.258;2022-09-16T01:51:16;14.27;;;9.17;;
41755;SDS011;27435;48.480;9.258;2022-09-16T01:54:08;14.90;;;9.07;;
41755;SDS011;27435;48.480;9.258;2022-09-16T01:56:42;16.60;;;9.80;;
41755;SDS011;27435;48.480;9.258;2022-09-16T01:59:20;17.10;;;10.17;;
41755;SDS011;27435;48.480;9.258;2022-09-16T02:04:28;19.07;;;11.17;;
41755;SDS011;27435;48.480;9.258;2022-09-16T02:06:58;16.67;;;10.60;;
41755;SDS011;27435;48.480;9.258;2022-09-16T02:09:30;15.23;;;10.30;;
41755;SDS011;27435;48.480;9.258;2022-09-16T02:12:00;18.83;;;10.30;;
41755;SDS011;27435;48.480;9.258;2022-09-16T02:14:31;15.83;;;9.97;;
41755;SDS011;27435;48.480;9.258;2022-09-16T02:17:04;13.77;;;9.47;;
41755;SDS011;27435;48.480;9.258;2022-09-16T02:19:36;14.50;;;10.17;;
41755;SDS011;27435;48.480;9.258;2022-09-16T02:22:03;15.77;;;10.57;;
41755;SDS011;27435;48.480;9.258;2022-09-16T02:24:33;14.37;;;9.80;;
41755;SDS011;27435;48.480;9.258;2022-09-16T02:27:03;17.50;;;10.13;;
41755;SDS011;27435;48.480;9.258;2022-09-16T02:29:39;18.77;;;10.17;;
41755;SDS011;27435;48.480;9.258;2022-09-16T02:32:09;13.52;;;9.50;;
41755;SDS011;27435;48.480;9.258;2022-09-16T02:34:38;13.60;;;8.50;;
41755;SDS011;27435;48.480;9.258;2022-09-16T02:40:02;14.40;;;9.00;;
41755;SDS011;27435;48.480;9.258;2022-09-16T02:42:31;13.60;;;9.60;;
41755;SDS011;27435;48.480;9.258;2022-09-16T02:44:58;17.43;;;10.00;;
41755;SDS011;27435;48.480;9.258;2022-09-16T02:50:00;16.20;;;10.63;;
41755;SDS011;27435;48.480;9.258;2022-09-16T02:52:42;15.60;;;9.87;;
41755;SDS011;27435;48.480;9.258;2022-09-16T02:58:01;16.03;;;9.67;;
41755;SDS011;27435;48.480;9.258;2022-09-16T03:00:28;21.07;;;10.60;;
41755;SDS011;27435;48.480;9.258;2022-09-16T03:02:57;19.77;;;11.33;;
41755;SDS011;27435;48.480;9.258;2022-09-16T03:05:29;17.70;;;10.90;;
41755;SDS011;27435;48.480;9.258;2022-09-16T03:07:54;16.83;;;10.20;;
41755;SDS011;27435;48.480;9.258;2022-09-16T03:10:25;17.63;;;9.67;;
41755;SDS011;27435;48.480;9.258;2022-09-16T03:15:53;19.47;;;11.97;;
41755;SDS011;27435;48.480;9.258;2022-09-16T03:21:28;21.43;;;11.33;;
41755;SDS011;27435;48.480;9.258;2022-09-16T03:24:15;19.03;;;11.70;;
41755;SDS011;27435;48.480;9.258;2022-09-16T03:26:57;15.70;;;11.03;;
41755;SDS011;27435;48.480;9.258;2022-09-16T03:29:29;16.07;;;10.83;;
41755;SDS011;27435;48.480;9.258;2022-09-16T03:32:11;17.80;;;9.87;;
41755;SDS011;27435;48.480;9.258;2022-09-16T03:37:28;17.27;;;10.83;;
41755;SDS011;27435;48.480;9.258;2022-09-16T03:39:58;18.37;;;10.40;;
41755;SDS011;27435;48.480;9.258;2022-09-16T03:42:29;18.77;;;9.83;;
41755;SDS011;27435;48.480;9.258;2022-09-16T03:44:55;18.37;;;10.70;;
41755;SDS011;27435;48.480;9.258;2022-09-16T03:47:21;18.57;;;10.50;;
41755;SDS011;27435;48.480;9.258;2022-09-16T03:49:47;16.90;;;11.03;;
41755;SDS011;27435;48.480;9.258;2022-09-16T03:52:12;21.17;;;10.67;;
41755;SDS011;27435;48.480;9.258;2022-09-16T03:54:38;17.27;;;11.13;;
41755;SDS011;27435;48.480;9.258;2022-09-16T03:57:04;23.87;;;11.73;;
41755;SDS011;27435;48.480;9.258;2022-09-16T03:59:30;18.30;;;11.30;;
41755;SDS011;27435;48.480;9.258;2022-09-16T04:01:56;18.47;;;10.87;;
41755;SDS011;27435;48.480;9.258;2022-09-16T04:04:22;16.27;;;10.90;;
41755;SDS011;27435;48.480;9.258;2022-09-16T04:06:47;14.40;;;10.40;;
41755;SDS011;27435;48.480;9.258;2022-09-16T04:09:13;16.87;;;10.50;;
41755;SDS011;27435;48.480;9.258;2022-09-16T04:11:40;22.63;;;11.63;;
41755;SDS011;27435;48.480;9.258;2022-09-16T04:14:06;16.00;;;10.43;;
41755;SDS011;27435;48.480;9.258;2022-09-16T04:16:32;23.50;;;11.60;;
41755;SDS011;27435;48.480;9.258;2022-09-16T04:18:58;17.57;;;10.83;;
41755;SDS011;27435;48.480;9.258;2022-09-16T04:21:24;20.33;;;11.33;;
41755;SDS011;27435;48.480;9.258;2022-09-16T04:23:50;16.70;;;10.47;;
41755;SDS011;27435;48.480;9.258;2022-09-16T04:26:16;23.17;;;11.83;;
41755;SDS011;27435;48.480;9.258;2022-09-16T04:28:42;18.87;;;11.53;;
41755;SDS011;27435;48.480;9.258;2022-09-16T04:31:11;22.60;;;13.27;;
41755;SDS011;27435;48.480;9.258;2022-09-16T04:33:38;19.27;;;12.17;;
41755;SDS011;27435;48.480;9.258;2022-09-16T04:36:08;19.70;;;12.70;;
41755;SDS011;27435;48.480;9.258;2022-09-16T04:38:39;18.13;;;12.85;;
41755;SDS011;27435;48.480;9.258;2022-09-16T04:41:12;21.60;;;13.57;;
41755;SDS011;27435;48.480;9.258;2022-09-16T04:43:54;18.30;;;11.97;;
41755;SDS011;27435;48.480;9.258;2022-09-16T04:46:22;17.30;;;11.83;;
41755;SDS011;27435;48.480;9.258;2022-09-16T04:48:49;15.83;;;11.10;;
41755;SDS011;27435;48.480;9.258;2022-09-16T04:51:15;20.03;;;11.50;;
41755;SDS011;27435;48.480;9.258;2022-09-16T04:53:41;20.10;;;12.13;;
41755;SDS011;27435;48.480;9.258;2022-09-16T04:56:10;20.03;;;11.03;;
41755;SDS011;27435;48.480;9.258;2022-09-16T04:58:39;16.57;;;11.40;;
41755;SDS011;27435;48.480;9.258;2022-09-16T05:01:14;14.63;;;10.27;;
41755;SDS011;27435;48.480;9.258;2022-09-16T05:03:44;20.33;;;11.10;;
41755;SDS011;27435;48.480;9.258;2022-09-16T05:06:12;21.73;;;12.50;;
41755;SDS011;27435;48.480;9.258;2022-09-16T05:08:40;23.63;;;11.77;;
41755;SDS011;27435;48.480;9.258;2022-09-16T05:11:07;15.90;;;10.90;;
41755;SDS011;27435;48.480;9.258;2022-09-16T05:13:44;20.08;;;11.10;;
41755;SDS011;27435;48.480;9.258;2022-09-16T05:16:11;17.53;;;10.77;;
41755;SDS011;27435;48.480;9.258;2022-09-16T05:18:38;17.23;;;11.33;;
41755;SDS011;27435;48.480;9.258;2022-09-16T05:21:06;17.80;;;11.17;;
41755;SDS011;27435;48.480;9.258;2022-09-16T05:23:33;20.43;;;11.63;;
41755;SDS011;27435;48.480;9.258;2022-09-16T05:26:02;16.50;;;11.30;;
41755;SDS011;27435;48.480;9.258;2022-09-16T05:28:29;14.70;;;9.67;;
41755;SDS011;27435;48.480;9.258;2022-09-16T05:31:05;14.50;;;10.70;;
41755;SDS011;27435;48.480;9.258;2022-09-16T05:34:01;18.80;;;11.05;;
41755;SDS011;27435;48.480;9.258;2022-09-16T05:36:34;15.30;;;10.73;;
41755;SDS011;27435;48.480;9.258;2022-09-16T05:39:02;22.87;;;11.93;;
41755;SDS011;27435;48.480;9.258;2022-09-16T05:41:27;16.93;;;11.37;;
41755;SDS011;27435;48.480;9.258;2022-09-16T05:43:53;15.27;;;10.53;;
41755;SDS011;27435;48.480;9.258;2022-09-16T05:46:22;15.88;;;10.20;;
41755;SDS011;27435;48.480;9.258;2022-09-16T05:48:48;15.10;;;10.25;;
41755;SDS011;27435;48.480;9.258;2022-09-16T05:51:15;16.30;;;9.82;;
41755;SDS011;27435;48.480;9.258;2022-09-16T05:53:42;15.95;;;9.18;;
41755;SDS011;27435;48.480;9.258;2022-09-16T05:56:12;18.42;;;9.93;;
41755;SDS011;27435;48.480;9.258;2022-09-16T05:58:39;11.80;;;9.13;;
41755;SDS011;27435;48.480;9.258;2022-09-16T06:01:12;14.63;;;8.35;;
41755;SDS011;27435;48.480;9.258;2022-09-16T06:03:43;12.93;;;8.82;;
41755;SDS011;27435;48.480;9.258;2022-09-16T06:06:11;13.27;;;8.60;;
41755;SDS011;27435;48.480;9.258;2022-09-16T06:08:43;11.32;;;8.07;;
41755;SDS011;27435;48.480;9.258;2022-09-16T06:11:09;12.77;;;8.55;;
41755;SDS011;27435;48.480;9.258;2022-09-16T06:13:36;13.00;;;9.18;;
41755;SDS011;27435;48.480;9.258;2022-09-16T06:16:02;16.35;;;9.20;;
41755;SDS011;27435;48.480;9.258;2022-09-16T06:18:29;13.47;;;8.33;;
41755;SDS011;27435;48.480;9.258;2022-09-16T06:20:55;14.37;;;8.23;;
41755;SDS011;27435;48.480;9.258;2022-09-16T06:23:22;16.40;;;8.47;;
41755;SDS011;27435;48.480;9.258;2022-09-16T06:25:57;14.63;;;9.17;;
41755;SDS011;27435;48.480;9.258;2022-09-16T06:28:27;13.43;;;7.90;;
41755;SDS011;27435;48.480;9.258;2022-09-16T06:31:06;12.90;;;7.63;;
41755;SDS011;27435;48.480;9.258;2022-09-16T06:33:34;20.00;;;9.10;;
41755;SDS011;27435;48.480;9.258;2022-09-16T06:36:07;17.43;;;8.60;;
41755;SDS011;27435;48.480;9.258;2022-09-16T06:38:33;18.17;;;8.60;;
41755;SDS011;27435;48.480;9.258;2022-09-16T06:40:59;14.67;;;8.47;;
41755;SDS011;27435;48.480;9.258;2022-09-16T06:43:26;15.50;;;8.27;;
41755;SDS011;27435;48.480;9.258;2022-09-16T06:45:57;13.97;;;7.80;;
41755;SDS011;27435;48.480;9.258;2022-09-16T06:48:23;16.77;;;9.33;;
41755;SDS011;27435;48.480;9.258;2022-09-16T06:50:56;18.10;;;9.67;;
41755;SDS011;27435;48.480;9.258;2022-09-16T06:53:25;12.75;;;7.47;;
41755;SDS011;27435;48.480;9.258;2022-09-16T06:55:51;18.53;;;7.73;;
41755;SDS011;27435;48.480;9.258;2022-09-16T06:58:16;14.97;;;8.53;;
41755;SDS011;27435;48.480;9.258;2022-09-16T07:00:42;14.07;;;8.67;;
41755;SDS011;27435;48.480;9.258;2022-09-16T07:03:07;16.00;;;9.40;;
41755;SDS011;27435;48.480;9.258;2022-09-16T07:05:33;18.33;;;8.67;;
41755;SDS011;27435;48.480;9.258;2022-09-16T07:07:59;18.50;;;8.47;;
41755;SDS011;27435;48.480;9.258;2022-09-16T07:10:24;13.33;;;8.67;;
41755;SDS011;27435;48.480;9.258;2022-09-16T07:12:50;15.33;;;9.50;;
41755;SDS011;27435;48.480;9.258;2022-09-16T07:15:16;17.07;;;8.67;;
41755;SDS011;27435;48.480;9.258;2022-09-16T07:17:41;16.10;;;8.97;;
41755;SDS011;27435;48.480;9.258;2022-09-16T07:20:07;16.47;;;8.60;;
41755;SDS011;27435;48.480;9.258;2022-09-16T07:22:33;11.93;;;7.53;;
41755;SDS011;27435;48.480;9.258;2022-09-16T07:24:59;24.77;;;8.17;;
41755;SDS011;27435;48.480;9.258;2022-09-16T07:27:24;12.33;;;7.10;;
41755;SDS011;27435;48.480;9.258;2022-09-16T07:29:50;25.10;;;8.27;;
41755;SDS011;27435;48.480;9.258;2022-09-16T07:32:17;14.57;;;8.43;;
41755;SDS011;27435;48.480;9.258;2022-09-16T07:34:43;13.23;;;7.83;;
41755;SDS011;27435;48.480;9.258;2022-09-16T07:37:09;13.03;;;7.33;;
41755;SDS011;27435;48.480;9.258;2022-09-16T07:39:34;15.07;;;7.27;;
41755;SDS011;27435;48.480;9.258;2022-09-16T07:42:00;14.73;;;6.53;;
41755;SDS011;27435;48.480;9.258;2022-09-16T07:44:27;10.27;;;5.77;;
41755;SDS011;27435;48.480;9.258;2022-09-16T07:46:53;13.90;;;6.20;;
41755;SDS011;27435;48.480;9.258;2022-09-16T07:49:19;12.97;;;5.37;;
41755;SDS011;27435;48.480;9.258;2022-09-16T07:51:45;16.47;;;7.10;;
41755;SDS011;27435;48.480;9.258;2022-09-16T07:54:12;11.37;;;6.23;;
41755;SDS011;27435;48.480;9.258;2022-09-16T07:56:39;12.70;;;6.13;;
41755;SDS011;27435;48.480;9.258;2022-09-16T07:59:06;14.30;;;6.13;;
41755;SDS011;27435;48.480;9.258;2022-09-16T08:01:36;16.53;;;7.03;;
41755;SDS011;27435;48.480;9.258;2022-09-16T08:04:02;12.30;;;6.30;;
41755;SDS011;27435;48.480;9.258;2022-09-16T08:06:29;16.30;;;6.50;;
41755;SDS011;27435;48.480;9.258;2022-09-16T08:08:56;16.73;;;6.73;;
41755;SDS011;27435;48.480;9.258;2022-09-16T08:11:25;11.23;;;6.47;;
41755;SDS011;27435;48.480;9.258;2022-09-16T08:13:52;12.13;;;6.10;;
41755;SDS011;27435;48.480;9.258;2022-09-16T08:16:20;11.83;;;5.97;;
41755;SDS011;27435;48.480;9.258;2022-09-16T08:18:47;9.10;;;5.80;;
41755;SDS011;27435;48.480;9.258;2022-09-16T08:21:19;12.30;;;5.67;;
41755;SDS011;27435;48.480;9.258;2022-09-16T08:23:46;10.37;;;5.83;;
41755;SDS011;27435;48.480;9.258;2022-09-16T08:26:13;6.00;;;3.67;;
41755;SDS011;27435;48.480;9.258;2022-09-16T08:28:40;6.00;;;4.30;;
41755;SDS011;27435;48.480;9.258;2022-09-16T08:31:08;10.70;;;4.20;;
41755;SDS011;27435;48.480;9.258;2022-09-16T08:33:34;9.67;;;4.40;;
41755;SDS011;27435;48.480;9.258;2022-09-16T08:38:45;11.97;;;5.47;;
41755;SDS011;27435;48.480;9.258;2022-09-16T08:46:54;11.93;;;5.17;;
41755;SDS011;27435;48.480;9.258;2022-09-16T08:49:33;12.97;;;4.90;;
41755;SDS011;27435;48.480;9.258;2022-09-16T08:52:01;9.43;;;4.90;;
41755;SDS011;27435;48.480;9.258;2022-09-16T08:57:16;7.97;;;4.33;;
41755;SDS011;27435;48.480;9.258;2022-09-16T08:59:47;9.70;;;4.33;;
41755;SDS011;27435;48.480;9.258;2022-09-16T09:02:23;6.70;;;4.10;;
41755;SDS011;27435;48.480;9.258;2022-09-16T09:05:24;5.40;;;3.70;;
41755;SDS011;27435;48.480;9.258;2022-09-16T09:08:00;8.77;;;3.90;;
41755;SDS011;27435;48.480;9.258;2022-09-16T09:10:50;8.70;;;3.63;;
41755;SDS011;27435;48.480;9.258;2022-09-16T09:30:23;6.03;;;2.60;;
41755;SDS011;27435;48.480;9.258;2022-09-16T09:38:54;6.70;;;2.27;;
41755;SDS011;27435;48.480;9.258;2022-09-16T09:41:36;6.50;;;2.67;;
41755;SDS011;27435;48.480;9.258;2022-09-16T09:44:18;3.33;;;2.43;;
41755;SDS011;27435;48.480;9.258;2022-09-16T09:46:54;5.23;;;2.80;;
41755;SDS011;27435;48.480;9.258;2022-09-16T09:49:32;6.25;;;3.20;;
41755;SDS011;27435;48.480;9.258;2022-09-16T09:52:04;5.87;;;3.20;;
41755;SDS011;27435;48.480;9.258;2022-09-16T09:54:48;7.47;;;3.33;;
41755;SDS011;27435;48.480;9.258;2022-09-16T09:59:52;6.30;;;3.23;;
41755;SDS011;27435;48.480;9.258;2022-09-16T10:02:49;4.47;;;2.73;;
41755;SDS011;27435;48.480;9.258;2022-09-16T10:07:44;6.17;;;2.70;;
41755;SDS011;27435;48.480;9.258;2022-09-16T10:10:13;5.53;;;3.60;;
41755;SDS011;27435;48.480;9.258;2022-09-16T10:12:40;4.87;;;2.93;;
41755;SDS011;27435;48.480;9.258;2022-09-16T10:15:17;7.87;;;3.40;;
41755;SDS011;27435;48.480;9.258;2022-09-16T10:17:51;3.97;;;2.67;;
41755;SDS011;27435;48.480;9.258;2022-09-16T10:20:28;5.67;;;3.27;;
41755;SDS011;27435;48.480;9.258;2022-09-16T10:23:09;7.30;;;4.20;;
41755;SDS011;27435;48.480;9.258;2022-09-16T10:25:39;6.73;;;3.50;;
41755;SDS011;27435;48.480;9.258;2022-09-16T10:28:20;8.67;;;3.07;;
41755;SDS011;27435;48.480;9.258;2022-09-16T10:30:48;5.47;;;3.45;;
41755;SDS011;27435;48.480;9.258;2022-09-16T10:35:53;5.43;;;2.10;;
41755;SDS011;27435;48.480;9.258;2022-09-16T10:38:22;4.00;;;2.72;;
41755;SDS011;27435;48.480;9.258;2022-09-16T10:41:01;3.50;;;2.60;;
41755;SDS011;27435;48.480;9.258;2022-09-16T10:43:31;4.57;;;2.38;;
41755;SDS011;27435;48.480;9.258;2022-09-16T10:45:56;6.07;;;2.53;;
41755;SDS011;27435;48.480;9.258;2022-09-16T10:48:27;4.47;;;2.08;;
41755;SDS011;27435;48.480;9.258;2022-09-16T10:50:55;4.60;;;2.90;;
41755;SDS011;27435;48.480;9.258;2022-09-16T10:53:31;5.25;;;3.03;;
41755;SDS011;27435;48.480;9.258;2022-09-16T10:56:02;5.95;;;2.75;;
41755;SDS011;27435;48.480;9.258;2022-09-16T10:58:30;6.07;;;3.05;;
41755;SDS011;27435;48.480;9.258;2022-09-16T11:03:51;8.13;;;3.88;;
41755;SDS011;27435;48.480;9.258;2022-09-16T11:14:45;6.13;;;3.90;;
41755;SDS011;27435;48.480;9.258;2022-09-16T11:17:40;5.10;;;3.45;;
41755;SDS011;27435;48.480;9.258;2022-09-16T11:23:02;6.10;;;3.60;;
41755;SDS011;27435;48.480;9.258;2022-09-16T11:30:51;9.07;;;3.80;;
41755;SDS011;27435;48.480;9.258;2022-09-16T11:39:29;5.05;;;2.92;;
41755;SDS011;27435;48.480;9.258;2022-09-16T11:51:04;4.60;;;2.90;;
41755;SDS011;27435;48.480;9.258;2022-09-16T11:56:31;4.80;;;2.58;;
41755;SDS011;27435;48.480;9.258;2022-09-16T11:59:27;5.45;;;3.20;;
41755;SDS011;27435;48.480;9.258;2022-09-16T12:04:47;4.82;;;2.95;;
41755;SDS011;27435;48.480;9.258;2022-09-16T12:07:28;6.70;;;3.20;;
41755;SDS011;27435;48.480;9.258;2022-09-16T12:10:13;5.00;;;2.90;;
41755;SDS011;27435;48.480;9.258;2022-09-16T12:12:58;6.63;;;2.88;;
41755;SDS011;27435;48.480;9.258;2022-09-16T12:15:47;6.18;;;2.83;;
41755;SDS011;27435;48.480;9.258;2022-09-16T12:18:30;7.25;;;3.20;;
41755;SDS011;27435;48.480;9.258;2022-09-16T12:23:33;5.93;;;3.17;;
41755;SDS011;27435;48.480;9.258;2022-09-16T12:29:14;8.85;;;2.60;;
41755;SDS011;27435;48.480;9.258;2022-09-16T12:34:57;6.63;;;2.20;;
41755;SDS011;27435;48.480;9.258;2022-09-16T12:37:32;3.58;;;1.73;;
41755;SDS011;27435;48.480;9.258;2022-09-16T12:40:37;6.32;;;2.00;;
41755;SDS011;27435;48.480;9.258;2022-09-16T13:00:08;5.78;;;2.25;;
41755;SDS011;27435;48.480;9.258;2022-09-16T13:02:49;6.88;;;2.10;;
41755;SDS011;27435;48.480;9.258;2022-09-16T13:05:28;3.63;;;1.90;;
41755;SDS011;27435;48.480;9.258;2022-09-16T13:07:59;5.38;;;2.42;;
41755;SDS011;27435;48.480;9.258;2022-09-16T13:10:31;7.32;;;1.92;;
41755;SDS011;27435;48.480;9.258;2022-09-16T13:13:01;4.45;;;1.80;;
41755;SDS011;27435;48.480;9.258;2022-09-16T13:15:29;4.45;;;1.98;;
41755;SDS011;27435;48.480;9.258;2022-09-16T13:21:01;3.50;;;1.90;;
41755;SDS011;27435;48.480;9.258;2022-09-16T13:23:34;3.80;;;1.55;;
41755;SDS011;27435;48.480;9.258;2022-09-16T13:26:07;7.15;;;1.80;;
41755;SDS011;27435;48.480;9.258;2022-09-16T13:28:38;3.85;;;1.45;;
41755;SDS011;27435;48.480;9.258;2022-09-16T13:33:48;6.88;;;1.70;;
41755;SDS011;27435;48.480;9.258;2022-09-16T13:36:29;4.55;;;1.48;;
41755;SDS011;27435;48.480;9.258;2022-09-16T13:39:01;3.63;;;1.70;;
41755;SDS011;27435;48.480;9.258;2022-09-16T13:44:24;3.40;;;1.50;;
41755;SDS011;27435;48.480;9.258;2022-09-16T13:49:35;4.32;;;1.40;;
41755;SDS011;27435;48.480;9.258;2022-09-16T13:52:17;4.75;;;1.45;;
41755;SDS011;27435;48.480;9.258;2022-09-16T13:54:55;3.60;;;2.20;;
41755;SDS011;27435;48.480;9.258;2022-09-16T14:05:40;3.78;;;1.15;;
41755;SDS011;27435;48.480;9.258;2022-09-16T14:08:19;4.05;;;1.30;;
41755;SDS011;27435;48.480;9.258;2022-09-16T14:11:00;3.72;;;0.90;;
41755;SDS011;27435;48.480;9.258;2022-09-16T14:13:45;5.95;;;0.88;;
41755;SDS011;27435;48.480;9.258;2022-09-16T14:16:16;2.85;;;0.90;;
41755;SDS011;27435;48.480;9.258;2022-09-16T14:22:05;4.82;;;1.08;;
41755;SDS011;27435;48.480;9.258;2022-09-16T14:24:39;3.75;;;1.40;;
41755;SDS011;27435;48.480;9.258;2022-09-16T14:32:19;3.67;;;1.00;;
41755;SDS011;27435;48.480;9.258;2022-09-16T14:34:48;4.68;;;1.13;;
41755;SDS011;27435;48.480;9.258;2022-09-16T14:37:16;6.03;;;1.17;;
41755;SDS011;27435;48.480;9.258;2022-09-16T14:39:44;2.88;;;1.10;;
41755;SDS011;27435;48.480;9.258;2022-09-16T14:42:13;2.53;;;0.95;;
41755;SDS011;27435;48.480;9.258;2022-09-16T14:44:47;4.80;;;1.10;;
41755;SDS011;27435;48.480;9.258;2022-09-16T14:47:20;3.53;;;1.30;;
41755;SDS011;27435;48.480;9.258;2022-09-16T14:50:41;6.80;;;2.00;;
41755;SDS011;27435;48.480;9.258;2022-09-16T14:52:53;3.80;;;1.17;;
41755;SDS011;27435;48.480;9.258;2022-09-16T14:55:20;4.38;;;1.20;;
41755;SDS011;27435;48.480;9.258;2022-09-16T14:57:47;5.20;;;1.08;;
41755;SDS011;27435;48.480;9.258;2022-09-16T15:00:15;2.72;;;1.08;;
41755;SDS011;27435;48.480;9.258;2022-09-16T15:02:47;3.80;;;1.30;;
41755;SDS011;27435;48.480;9.258;2022-09-16T15:05:34;3.05;;;1.17;;
41755;SDS011;27435;48.480;9.258;2022-09-16T15:08:05;3.80;;;1.48;;
41755;SDS011;27435;48.480;9.258;2022-09-16T15:10:39;4.63;;;1.35;;
41755;SDS011;27435;48.480;9.258;2022-09-16T15:13:08;3.65;;;1.10;;
41755;SDS011;27435;48.480;9.258;2022-09-16T15:15:36;4.43;;;1.20;;
41755;SDS011;27435;48.480;9.258;2022-09-16T15:18:11;5.28;;;1.20;;
41755;SDS011;27435;48.480;9.258;2022-09-16T15:21:02;5.80;;;1.13;;
41755;SDS011;27435;48.480;9.258;2022-09-16T15:23:29;4.07;;;1.10;;
41755;SDS011;27435;48.480;9.258;2022-09-16T15:25:57;2.33;;;1.17;;
41755;SDS011;27435;48.480;9.258;2022-09-16T15:28:30;2.45;;;1.13;;
41755;SDS011;27435;48.480;9.258;2022-09-16T15:30:56;5.40;;;1.23;;
41755;SDS011;27435;48.480;9.258;2022-09-16T15:33:22;3.40;;;1.33;;
41755;SDS011;27435;48.480;9.258;2022-09-16T15:35:56;7.68;;;1.38;;
41755;SDS011;27435;48.480;9.258;2022-09-16T15:38:22;1.83;;;0.90;;
41755;SDS011;27435;48.480;9.258;2022-09-16T15:41:00;2.20;;;1.23;;
41755;SDS011;27435;48.480;9.258;2022-09-16T15:43:27;5.32;;;1.25;;
41755;SDS011;27435;48.480;9.258;2022-09-16T15:45:58;2.90;;;1.42;;
41755;SDS011;27435;48.480;9.258;2022-09-16T15:48:28;4.32;;;1.25;;
41755;SDS011;27435;48.480;9.258;2022-09-16T15:50:58;2.38;;;1.15;;
41755;SDS011;27435;48.480;9.258;2022-09-16T15:53:43;2.42;;;1.20;;
41755;SDS011;27435;48.480;9.258;2022-09-16T15:59:01;3.33;;;1.10;;
41755;SDS011;27435;48.480;9.258;2022-09-16T16:01:50;4.10;;;1.27;;
41755;SDS011;27435;48.480;9.258;2022-09-16T16:04:23;2.65;;;1.10;;
41755;SDS011;27435;48.480;9.258;2022-09-16T16:06:59;3.70;;;1.17;;
41755;SDS011;27435;48.480;9.258;2022-09-16T16:12:13;5.22;;;1.58;;
41755;SDS011;27435;48.480;9.258;2022-09-16T16:14:39;3.25;;;1.50;;
41755;SDS011;27435;48.480;9.258;2022-09-16T16:19:35;5.03;;;1.30;;
41755;SDS011;27435;48.480;9.258;2022-09-16T16:22:03;3.80;;;1.20;;
41755;SDS011;27435;48.480;9.258;2022-09-16T16:24:29;4.50;;;1.48;;
41755;SDS011;27435;48.480;9.258;2022-09-16T16:26:55;4.57;;;1.42;;
41755;SDS011;27435;48.480;9.258;2022-09-16T16:29:21;2.33;;;1.42;;
41755;SDS011;27435;48.480;9.258;2022-09-16T16:32:00;2.30;;;1.00;;
41755;SDS011;27435;48.480;9.258;2022-09-16T16:34:29;5.22;;;1.35;;
41755;SDS011;27435;48.480;9.258;2022-09-16T16:36:56;4.10;;;1.30;;
41755;SDS011;27435;48.480;9.258;2022-09-16T16:39:22;3.67;;;1.05;;
41755;SDS011;27435;48.480;9.258;2022-09-16T16:41:48;3.47;;;1.10;;
41755;SDS011;27435;48.480;9.258;2022-09-16T16:44:15;5.32;;;1.58;;
41755;SDS011;27435;48.480;9.258;2022-09-16T16:46:40;7.80;;;2.97;;
41755;SDS011;27435;48.480;9.258;2022-09-16T16:49:06;7.30;;;1.75;;
41755;SDS011;27435;48.480;9.258;2022-09-16T16:51:31;6.43;;;1.73;;
41755;SDS011;27435;48.480;9.258;2022-09-16T16:53:57;4.93;;;2.22;;
41755;SDS011;27435;48.480;9.258;2022-09-16T16:56:23;4.82;;;1.52;;
41755;SDS011;27435;48.480;9.258;2022-09-16T16:58:49;10.00;;;2.58;;
41755;SDS011;27435;48.480;9.258;2022-09-16T17:01:15;8.75;;;2.78;;
41755;SDS011;27435;48.480;9.258;2022-09-16T17:03:43;8.25;;;2.35;;
41755;SDS011;27435;48.480;9.258;2022-09-16T17:06:10;9.98;;;2.60;;
41755;SDS011;27435;48.480;9.258;2022-09-16T17:08:36;5.40;;;2.45;;
41755;SDS011;27435;48.480;9.258;2022-09-16T17:11:09;9.27;;;4.22;;
41755;SDS011;27435;48.480;9.258;2022-09-16T17:13:39;6.80;;;2.67;;
41755;SDS011;27435;48.480;9.258;2022-09-16T17:16:11;8.55;;;3.00;;
41755;SDS011;27435;48.480;9.258;2022-09-16T17:18:39;6.40;;;2.50;;
41755;SDS011;27435;48.480;9.258;2022-09-16T17:21:06;4.47;;;1.60;;
41755;SDS011;27435;48.480;9.258;2022-09-16T17:23:36;7.10;;;2.37;;
41755;SDS011;27435;48.480;9.258;2022-09-16T17:26:03;7.20;;;4.17;;
41755;SDS011;27435;48.480;9.258;2022-09-16T17:28:30;5.70;;;2.33;;
41755;SDS011;27435;48.480;9.258;2022-09-16T17:30:55;4.90;;;1.67;;
41755;SDS011;27435;48.480;9.258;2022-09-16T17:33:21;30.03;;;11.53;;
41755;SDS011;27435;48.480;9.258;2022-09-16T17:35:47;4.77;;;2.30;;
41755;SDS011;27435;48.480;9.258;2022-09-16T17:38:27;11.17;;;2.77;;
41755;SDS011;27435;48.480;9.258;2022-09-16T17:40:59;6.20;;;1.53;;
41755;SDS011;27435;48.480;9.258;2022-09-16T17:43:31;6.63;;;1.83;;
41755;SDS011;27435;48.480;9.258;2022-09-16T17:46:01;8.57;;;2.00;;
41755;SDS011;27435;48.480;9.258;2022-09-16T17:48:29;6.77;;;1.97;;
41755;SDS011;27435;48.480;9.258;2022-09-16T17:50:55;5.00;;;1.50;;
41755;SDS011;27435;48.480;9.258;2022-09-16T17:53:21;4.70;;;1.57;;
41755;SDS011;27435;48.480;9.258;2022-09-16T17:55:47;4.27;;;2.13;;
41755;SDS011;27435;48.480;9.258;2022-09-16T17:58:13;6.57;;;2.53;;
41755;SDS011;27435;48.480;9.258;2022-09-16T18:04:01;5.37;;;1.90;;
41755;SDS011;27435;48.480;9.258;2022-09-16T18:06:28;4.33;;;1.90;;
41755;SDS011;27435;48.480;9.258;2022-09-16T18:09:01;8.70;;;2.00;;